createdAt,value
2023-01-28T00:01:17.835Z,22.10
2023-01-28T00:03:44.521Z,23.90
2023-01-28T00:06:15.256Z,25.50
2023-01-28T00:08:42.152Z,25.47
2023-01-28T00:11:11.838Z,24.57
2023-01-28T00:13:39.027Z,23.33
2023-01-28T00:16:08.836Z,22.47
2023-01-28T00:18:36.135Z,20.67
2023-01-28T00:21:04.475Z,22.07
2023-01-28T00:23:33.766Z,23.63
2023-01-28T00:26:02.115Z,22.53
2023-01-28T00:28:29.104Z,20.37
2023-01-28T00:30:56.081Z,26.07
2023-01-28T00:33:23.282Z,21.50
2023-01-28T00:36:01.102Z,22.67
2023-01-28T00:38:28.751Z,21.53
2023-01-28T00:40:55.687Z,22.57
2023-01-28T00:43:23.373Z,21.10
2023-01-28T00:45:50.457Z,19.73
2023-01-28T00:48:17.195Z,22.30
2023-01-28T00:50:45.600Z,21.23
2023-01-28T00:53:12.243Z,19.00
2023-01-28T00:55:38.997Z,22.50
2023-01-28T00:58:05.661Z,20.37
2023-01-28T01:00:32.250Z,19.87
2023-01-28T01:02:59.538Z,20.70
2023-01-28T01:05:26.251Z,22.60
2023-01-28T01:07:52.858Z,21.17
2023-01-28T01:10:20.457Z,22.67
2023-01-28T01:12:48.571Z,21.07
2023-01-28T01:15:16.237Z,23.47
2023-01-28T01:17:45.926Z,18.97
2023-01-28T01:20:15.799Z,22.07
2023-01-28T01:22:42.456Z,21.93
2023-01-28T01:25:09.426Z,22.23
2023-01-28T01:27:36.274Z,21.40
2023-01-28T01:30:03.359Z,20.57
2023-01-28T01:32:31.574Z,21.63
2023-01-28T01:34:58.583Z,21.23
2023-01-28T01:37:25.873Z,21.63
2023-01-28T01:39:52.518Z,22.40
2023-01-28T01:42:19.349Z,21.70
2023-01-28T01:44:56.097Z,24.37
2023-01-28T01:47:27.933Z,25.33
2023-01-28T01:49:55.338Z,22.93
2023-01-28T01:52:26.785Z,23.80
2023-01-28T01:54:58.306Z,24.00
2023-01-28T01:57:28.483Z,27.30
2023-01-28T01:59:55.867Z,23.43
2023-01-28T02:02:23.422Z,25.43
2023-01-28T02:04:50.212Z,26.50
2023-01-28T02:07:17.511Z,20.77
2023-01-28T02:09:44.184Z,21.77
2023-01-28T02:12:17.999Z,22.27
2023-01-28T02:14:48.743Z,23.87
2023-01-28T02:17:15.728Z,24.03
2023-01-28T02:19:51.716Z,23.17
2023-01-28T02:22:26.554Z,26.10
2023-01-28T02:25:11.296Z,24.23
2023-01-28T02:27:49.933Z,24.30
2023-01-28T02:30:23.056Z,23.50
2023-01-28T02:33:00.758Z,27.10
2023-01-28T02:35:41.588Z,24.17
2023-01-28T02:38:11.655Z,26.03
2023-01-28T02:40:58.935Z,24.80
2023-01-28T02:43:43.182Z,25.93
2023-01-28T02:46:43.713Z,25.83
2023-01-28T02:49:14.782Z,24.23
2023-01-28T02:51:50.454Z,24.23
2023-01-28T02:54:35.860Z,23.83
2023-01-28T02:57:39.925Z,24.43
2023-01-28T03:00:23.490Z,23.57
2023-01-28T03:02:59.666Z,24.17
2023-01-28T03:05:31.876Z,25.13
2023-01-28T03:07:59.171Z,24.87
2023-01-28T03:10:26.766Z,25.70
2023-01-28T03:13:14.473Z,23.93
2023-01-28T03:16:05.532Z,26.37
2023-01-28T03:19:02.680Z,26.80
2023-01-28T03:21:58.094Z,26.80
2023-01-28T03:24:48.137Z,25.77
2023-01-28T03:27:47.439Z,23.20
2023-01-28T03:30:38.257Z,29.13
2023-01-28T03:33:29.344Z,28.60
2023-01-28T03:36:14.664Z,30.70
2023-01-28T03:38:42.849Z,27.43
2023-01-28T03:41:12.595Z,26.87
2023-01-28T03:43:41.314Z,27.13
2023-01-28T03:46:08.012Z,29.10
2023-01-28T03:48:34.613Z,29.67
2023-01-28T03:51:06.386Z,25.93
2023-01-28T03:53:33.375Z,22.83
2023-01-28T03:56:00.006Z,24.93
2023-01-28T03:58:40.257Z,29.60
2023-01-28T04:01:06.946Z,24.13
2023-01-28T04:03:33.494Z,27.73
2023-01-28T04:06:06.979Z,28.47
2023-01-28T04:09:05.973Z,27.67
2023-01-28T04:11:52.889Z,27.77
2023-01-28T04:14:27.447Z,26.77
2023-01-28T04:16:59.050Z,28.53
2023-01-28T04:19:26.570Z,28.97
2023-01-28T04:21:54.987Z,28.37
2023-01-28T04:24:22.403Z,27.07
2023-01-28T04:26:49.198Z,28.30
2023-01-28T04:29:16.069Z,29.37
2023-01-28T04:31:42.733Z,28.03
2023-01-28T04:34:33.962Z,27.70
2023-01-28T04:37:21.342Z,26.47
2023-01-28T04:40:13.347Z,27.13
2023-01-28T04:42:42.322Z,28.83
2023-01-28T04:45:18.675Z,27.23
2023-01-28T04:47:59.177Z,29.70
2023-01-28T04:50:46.703Z,27.97
2023-01-28T04:53:39.580Z,28.07
2023-01-28T04:56:08.041Z,28.47
2023-01-28T04:58:36.106Z,28.07
2023-01-28T05:01:06.174Z,28.30
2023-01-28T05:03:35.322Z,28.87
2023-01-28T05:06:04.506Z,26.73
2023-01-28T05:08:38.292Z,30.00
2023-01-28T05:11:04.967Z,28.07
2023-01-28T05:13:31.574Z,28.30
2023-01-28T05:15:58.414Z,26.47
2023-01-28T05:18:25.088Z,28.23
2023-01-28T05:21:03.615Z,28.10
2023-01-28T05:23:31.889Z,28.83
2023-01-28T05:25:59.231Z,28.00
2023-01-28T05:28:26.369Z,27.23
2023-01-28T05:30:53.317Z,28.03
2023-01-28T05:33:20.096Z,26.30
2023-01-28T05:35:46.692Z,27.43
2023-01-28T05:38:15.306Z,28.17
2023-01-28T05:40:42.281Z,29.03
2023-01-28T05:43:09.032Z,23.97
2023-01-28T05:45:43.557Z,27.30
2023-01-28T05:48:19.141Z,27.77
2023-01-28T05:51:05.233Z,30.97
2023-01-28T05:53:34.740Z,26.60
2023-01-28T05:56:01.395Z,25.33
2023-01-28T05:58:32.160Z,26.43
2023-01-28T06:01:02.202Z,27.57
2023-01-28T06:03:36.978Z,27.17
2023-01-28T06:06:03.897Z,30.50
2023-01-28T06:08:31.282Z,31.10
2023-01-28T06:10:58.658Z,25.13
2023-01-28T06:13:25.291Z,26.07
2023-01-28T06:16:15.093Z,26.47
2023-01-28T06:19:00.988Z,23.93
2023-01-28T06:21:30.049Z,24.63
2023-01-28T06:23:57.880Z,25.17
2023-01-28T06:26:24.571Z,24.90
2023-01-28T06:28:51.458Z,26.80
2023-01-28T06:31:18.435Z,23.90
2023-01-28T06:33:45.116Z,27.50
2023-01-28T06:36:11.724Z,22.23
2023-01-28T06:38:38.497Z,23.43
2023-01-28T06:41:05.187Z,23.57
2023-01-28T06:43:31.775Z,24.30
2023-01-28T06:45:58.729Z,20.80
2023-01-28T06:48:26.137Z,25.37
2023-01-28T06:50:53.009Z,22.43
2023-01-28T06:53:20.429Z,22.27
2023-01-28T06:55:47.068Z,23.60
2023-01-28T06:58:13.816Z,23.07
2023-01-28T07:00:40.547Z,23.10
2023-01-28T07:03:07.483Z,23.90
2023-01-28T07:05:34.313Z,21.80
2023-01-28T07:08:02.292Z,23.90
2023-01-28T07:10:29.669Z,23.33
2023-01-28T07:12:56.403Z,22.63
2023-01-28T07:15:23.128Z,21.90
2023-01-28T07:17:49.736Z,21.43
2023-01-28T07:20:17.344Z,22.13
2023-01-28T07:22:45.451Z,22.07
2023-01-28T07:25:13.565Z,20.90
2023-01-28T07:27:46.116Z,22.17
2023-01-28T07:30:15.572Z,23.77
2023-01-28T07:32:42.636Z,21.50
2023-01-28T07:35:09.641Z,23.00
2023-01-28T07:37:36.280Z,23.77
2023-01-28T07:40:03.432Z,25.60
2023-01-28T07:42:30.504Z,24.57
2023-01-28T07:45:00.699Z,24.40
2023-01-28T07:47:27.381Z,24.00
2023-01-28T07:49:54.070Z,24.90
2023-01-28T07:52:20.751Z,25.33
2023-01-28T07:54:47.369Z,30.37
2023-01-28T07:57:14.196Z,24.63
2023-01-28T07:59:40.897Z,24.80
2023-01-28T08:02:11.421Z,24.47
2023-01-28T08:04:40.452Z,23.70
2023-01-28T08:07:08.263Z,20.30
2023-01-28T08:09:35.278Z,23.60
2023-01-28T08:12:02.713Z,22.70
2023-01-28T08:14:29.603Z,26.00
2023-01-28T08:16:56.507Z,23.87
2023-01-28T08:19:23.167Z,21.70
2023-01-28T08:21:50.536Z,25.77
2023-01-28T08:24:17.778Z,23.63
2023-01-28T08:26:45.116Z,24.00
2023-01-28T08:29:12.447Z,25.03
2023-01-28T08:31:39.530Z,22.77
2023-01-28T08:34:06.417Z,25.07
2023-01-28T08:36:33.227Z,23.30
2023-01-28T08:39:00.130Z,22.90
2023-01-28T08:41:27.009Z,25.40
2023-01-28T08:43:53.647Z,29.07
2023-01-28T08:46:20.337Z,26.13
2023-01-28T08:48:50.397Z,25.93
2023-01-28T08:51:24.319Z,34.70
2023-01-28T09:02:31.970Z,24.50
2023-01-28T09:05:00.526Z,25.97
2023-01-28T09:07:27.997Z,26.13
2023-01-28T09:09:55.013Z,26.97
2023-01-28T09:12:22.112Z,26.17
2023-01-28T09:14:48.789Z,23.27
2023-01-28T09:17:15.456Z,22.93
2023-01-28T09:19:42.083Z,22.10
2023-01-28T09:22:08.704Z,21.83
2023-01-28T09:24:37.272Z,23.07
2023-01-28T09:27:05.189Z,24.07
2023-01-28T09:29:34.061Z,21.57
2023-01-28T09:32:01.743Z,21.93
2023-01-28T09:34:29.724Z,20.93
2023-01-28T09:36:57.114Z,20.93
2023-01-28T09:39:25.692Z,27.30
2023-01-28T09:41:59.077Z,21.37
